Time;durP1;ratioP1;P1;durP2;ratioP2;P2;SDS_P1;SDS_P2;PMS_P1;PMS_P2;Temp;Humidity;BMP_temperature;BMP_pressure;BME280_temperature;BME280_humidity;BME280_pressure;Samples;Min_cycle;Max_cycle;Signal;HPM_P1;HPM_P2
2023/06/24 00:00:37;;;;;;;2.90;2.00;;;;;;;19.57;70.85;98918.26;222266;1301;22572;-78
2023/06/24 00:05:51;;;;;;;2.30;2.10;;;;;;;19.54;70.92;98918.23;222329;1295;22569;-78
2023/06/24 00:10:59;;;;;;;2.50;1.90;;;;;;;19.49;71.16;98914.92;222331;1302;22581;-78
2023/06/24 00:16:12;;;;;;;4.50;2.30;;;;;;;19.42;71.30;98908.73;222281;1301;25332;-77
2023/06/24 00:21:24;;;;;;;3.60;2.00;;;;;;;19.36;71.36;98904.45;222241;1302;22585;-77
2023/06/24 00:27:04;;;;;;;3.40;2.60;;;;;;;19.31;71.59;98904.84;222025;1302;22607;-77
2023/06/24 00:32:11;;;;;;;4.20;2.60;;;;;;;19.28;71.77;98911.83;222271;1302;22550;-77
2023/06/24 00:37:21;;;;;;;2.60;2.40;;;;;;;19.27;71.94;98918.55;222297;1302;22665;-77
2023/06/24 00:42:30;;;;;;;3.20;2.10;;;;;;;19.21;72.00;98916.83;222096;1298;22572;-77
2023/06/24 00:47:43;;;;;;;2.30;2.10;;;;;;;19.15;72.19;98917.36;222226;1302;22566;-78
2023/06/24 00:52:53;;;;;;;2.70;1.90;;;;;;;19.12;72.37;98922.51;222245;1301;22600;-76
2023/06/24 00:58:15;;;;;;;2.70;2.20;;;;;;;19.11;72.43;98923.88;222235;1301;22649;-77
2023/06/24 01:03:32;;;;;;;5.70;3.00;;;;;;;19.12;72.60;98928.73;222255;1301;24261;-77
2023/06/24 01:09:09;;;;;;;2.30;2.10;;;;;;;19.12;72.70;98925.29;222051;1302;23691;-76
2023/06/24 01:14:12;;;;;;;2.70;2.40;;;;;;;19.12;72.88;98918.98;222254;1295;22585;-76
2023/06/24 01:19:29;;;;;;;2.30;2.00;;;;;;;19.07;72.88;98925.62;222219;1302;22563;-77
2023/06/24 01:25:31;;;;;;;2.50;2.30;;;;;;;19.06;73.01;98928.97;222272;1302;22550;-78
2023/06/24 01:31:48;;;;;;;4.30;2.70;;;;;;;19.05;73.28;98928.83;222274;1302;22565;-76
2023/06/24 01:37:04;;;;;;;3.30;2.50;;;;;;;19.03;73.40;98929.16;221310;1302;22582;-77
2023/06/24 01:42:32;;;;;;;2.90;2.60;;;;;;;18.99;73.63;98931.37;221686;1304;22701;-76
2023/06/24 01:48:10;;;;;;;3.20;2.90;;;;;;;18.96;73.82;98934.09;221783;1304;22679;-77
2023/06/24 01:53:29;;;;;;;3.80;3.00;;;;;;;18.94;73.97;98933.52;221556;1304;22586;-77
2023/06/24 01:58:41;;;;;;;4.30;3.10;;;;;;;18.93;74.24;98939.72;221787;1298;22696;-76
2023/06/24 02:03:54;;;;;;;3.60;2.80;;;;;;;18.90;74.46;98934.29;221710;1304;22559;-77
2023/06/24 02:09:13;;;;;;;3.30;3.00;;;;;;;18.85;74.67;98932.04;221860;1304;22565;-77
2023/06/24 02:14:46;;;;;;;3.80;2.90;;;;;;;18.80;74.93;98927.23;222055;1303;22602;-77
2023/06/24 02:19:50;;;;;;;4.00;3.20;;;;;;;18.75;75.10;98923.70;222171;1302;22562;-77
2023/06/24 02:24:58;;;;;;;4.70;3.90;;;;;;;18.67;75.33;98917.02;221992;1301;22546;-77
2023/06/24 02:30:14;;;;;;;6.00;4.00;;;;;;;18.59;75.66;98917.65;222134;1303;23497;-77
2023/06/24 02:35:45;;;;;;;4.20;3.90;;;;;;;18.50;75.99;98924.61;222064;1303;22569;-77
2023/06/24 02:41:06;;;;;;;8.50;3.40;;;;;;;18.44;76.37;98931.85;222121;1303;22610;-78
2023/06/24 02:46:22;;;;;;;3.70;3.40;;;;;;;18.41;76.68;98928.46;222294;1302;24254;-77
2023/06/24 02:51:28;;;;;;;4.10;3.70;;;;;;;18.40;76.83;98929.90;222328;1298;22677;-78
2023/06/24 02:56:41;;;;;;;3.60;3.90;;;;;;;18.39;76.96;98929.50;222180;1302;25439;-77
2023/06/24 03:01:57;;;;;;;4.20;3.80;;;;;;;18.38;77.13;98932.43;222359;1302;22590;-78
2023/06/24 03:07:25;;;;;;;4.80;3.80;;;;;;;18.38;77.20;98936.71;222113;1302;22668;-77
2023/06/24 03:12:27;;;;;;;5.70;4.90;;;;;;;18.39;77.34;98937.23;222270;1301;25363;-78
2023/06/24 03:17:50;;;;;;;5.30;4.70;;;;;;;18.39;77.74;98939.74;222088;1298;23477;-77
2023/06/24 03:22:57;;;;;;;6.90;4.80;;;;;;;18.38;77.79;98943.09;222229;1302;22608;-77
2023/06/24 03:28:00;;;;;;;6.40;5.80;;;;;;;18.37;78.00;98947.60;222201;1298;22562;-78
2023/06/24 03:33:16;;;;;;;7.20;6.50;;;;;;;18.36;78.19;98951.98;222111;1301;22572;-78
2023/06/24 03:38:20;;;;;;;9.10;7.60;;;;;;;18.36;78.51;98951.52;222335;1298;25290;-77
2023/06/24 03:43:32;;;;;;;9.50;8.60;;;;;;;18.35;79.00;98955.11;222083;1301;22599;-78
2023/06/24 03:48:47;;;;;;;12.70;9.20;;;;;;;18.35;79.42;98959.02;222259;1301;22552;-78
2023/06/24 03:53:55;;;;;;;14.20;10.40;;;;;;;18.36;79.75;98966.46;222305;1302;22595;-76
2023/06/24 03:58:58;;;;;;;16.20;11.20;;;;;;;18.36;80.09;98976.31;222242;1298;22608;-78
2023/06/24 04:04:00;;;;;;;16.90;12.60;;;;;;;18.36;80.47;98979.05;222285;1302;25429;-78
2023/06/24 04:09:06;;;;;;;14.20;12.40;;;;;;;18.39;80.75;98981.90;222174;1302;22574;-78
2023/06/24 04:14:36;;;;;;;15.00;13.40;;;;;;;18.42;80.90;98992.59;222302;1302;22505;-78
2023/06/24 04:19:46;;;;;;;14.70;13.10;;;;;;;18.44;81.15;98998.48;222072;1282;22573;-78
2023/06/24 04:24:49;;;;;;;14.60;13.10;;;;;;;18.46;81.20;99004.47;222154;1301;23463;-77
2023/06/24 04:29:52;;;;;;;16.10;13.60;;;;;;;18.46;81.36;99006.77;222287;1298;22620;-78
2023/06/24 04:35:07;;;;;;;20.50;18.30;;;;;;;18.45;81.62;99009.68;222104;1298;22566;-78
2023/06/24 04:40:13;;;;;;;21.60;18.30;;;;;;;18.45;81.81;99012.10;222306;1299;25481;-78
2023/06/24 04:45:24;;;;;;;23.80;19.30;;;;;;;18.47;82.03;99020.42;222306;1301;25419;-79
2023/06/24 04:50:47;;;;;;;23.50;18.90;;;;;;;18.44;82.08;99024.05;222260;1303;22562;-79
2023/06/24 04:56:45;;;;;;;21.70;18.80;;;;;;;18.38;82.47;99032.02;222171;1301;22569;-80
2023/06/24 05:02:17;;;;;;;23.90;18.80;;;;;;;18.29;82.64;99036.45;222349;1302;24247;-79
2023/06/24 05:07:22;;;;;;;21.30;17.90;;;;;;;18.21;82.59;99052.64;222171;1302;22515;-80
2023/06/24 05:12:26;;;;;;;19.30;16.30;;;;;;;18.13;82.63;99058.64;222105;1302;24266;-80
2023/06/24 05:17:33;;;;;;;14.80;12.20;;;;;;;18.08;82.45;99065.69;222251;1301;22878;-79
2023/06/24 05:22:36;;;;;;;14.10;9.90;;;;;;;18.07;82.31;99071.80;222331;1298;22653;-80
2023/06/24 05:27:44;;;;;;;13.60;9.90;;;;;;;18.07;82.00;99069.41;222041;1291;22678;-80
2023/06/24 05:32:49;;;;;;;10.90;9.60;;;;;;;18.07;81.77;99073.31;222226;1302;22598;-79
2023/06/24 05:38:04;;;;;;;;;;;;;;;;;;;;;
2023/06/24 05:43:25;;;;;;;10.20;8.40;;;;;;;18.23;81.22;99068.40;222244;1302;22581;-79
2023/06/24 05:48:27;;;;;;;9.40;8.00;;;;;;;18.34;80.95;99073.13;222306;1299;22569;-80
2023/06/24 05:54:01;;;;;;;10.60;8.60;;;;;;;18.45;80.52;99083.69;221443;1304;25298;-79
2023/06/24 05:59:15;;;;;;;9.00;8.10;;;;;;;18.52;79.98;99087.68;221380;1304;22592;-79
2023/06/24 06:04:32;;;;;;;10.10;8.20;;;;;;;18.57;79.78;99089.58;221669;1305;22612;-80
2023/06/24 06:09:57;;;;;;;8.60;7.50;;;;;;;18.67;79.53;99098.02;221621;1305;24737;-79
2023/06/24 06:15:07;;;;;;;11.40;8.10;;;;;;;18.78;79.26;99098.31;221345;1301;214320;-79
2023/06/24 06:20:14;;;;;;;8.90;8.00;;;;;;;18.86;78.90;99103.30;221332;1305;22554;-79
2023/06/24 06:25:23;;;;;;;8.70;7.70;;;;;;;18.94;78.66;99107.99;221809;1302;22591;-79
2023/06/24 06:30:34;;;;;;;9.10;7.80;;;;;;;19.06;78.24;99111.27;222144;1302;23026;-80
2023/06/24 06:35:36;;;;;;;8.60;7.80;;;;;;;19.14;77.93;99117.65;222306;1302;22668;-79
2023/06/24 06:40:42;;;;;;;9.40;8.20;;;;;;;19.21;77.86;99127.05;222140;1295;22575;-79
2023/06/24 06:45:44;;;;;;;10.60;8.60;;;;;;;19.20;77.35;99131.27;222090;1301;22600;-80
2023/06/24 06:50:47;;;;;;;9.40;8.10;;;;;;;19.20;77.52;99135.89;222308;1294;22569;-79
2023/06/24 06:55:50;;;;;;;9.60;8.60;;;;;;;19.24;77.42;99138.83;222050;1301;22614;-80
2023/06/24 07:01:04;;;;;;;9.30;8.40;;;;;;;19.28;77.23;99146.27;221966;1300;22578;-79
2023/06/24 07:06:13;;;;;;;10.00;8.80;;;;;;;19.27;77.14;99148.91;221969;1295;22562;-80
2023/06/24 07:11:18;;;;;;;10.50;9.10;;;;;;;19.34;77.21;99149.68;221677;1279;22635;-79
2023/06/24 07:16:23;;;;;;;10.80;9.20;;;;;;;19.45;77.14;99148.86;221356;1295;22608;-79
2023/06/24 07:21:25;;;;;;;10.80;8.90;;;;;;;19.57;77.01;99167.05;221446;1298;22594;-78
2023/06/24 07:26:45;;;;;;;10.40;9.40;;;;;;;19.62;76.82;99170.63;221620;1289;23051;-77
2023/06/24 07:31:50;;;;;;;9.50;8.50;;;;;;;19.62;76.82;99168.86;221594;1301;22562;-78
2023/06/24 07:37:02;;;;;;;10.20;9.00;;;;;;;19.70;76.70;99178.90;221674;1298;22569;-79
2023/06/24 07:42:20;;;;;;;10.00;8.90;;;;;;;19.74;76.54;99181.48;221830;1296;22698;-78
2023/06/24 07:47:23;;;;;;;10.60;8.60;;;;;;;19.76;76.41;99188.88;221351;1295;22602;-78
2023/06/24 07:52:25;;;;;;;9.10;8.20;;;;;;;19.80;76.36;99194.49;221553;1292;22576;-78
2023/06/24 07:57:33;;;;;;;8.40;7.60;;;;;;;19.82;76.45;99194.79;221873;1298;23052;-80
2023/06/24 08:02:38;;;;;;;8.90;7.70;;;;;;;19.86;76.39;99198.30;221928;1301;22577;-76
2023/06/24 08:07:40;;;;;;;9.60;8.40;;;;;;;19.97;76.48;99202.81;221643;1295;22863;-76
2023/06/24 08:12:42;;;;;;;8.70;7.80;;;;;;;20.15;76.22;99208.95;221261;1303;23059;-77
2023/06/24 08:17:51;;;;;;;7.90;7.10;;;;;;;20.32;75.71;99211.21;221650;1301;22568;-76
2023/06/24 08:22:53;;;;;;;8.00;7.00;;;;;;;20.32;75.37;99220.46;221827;1296;22775;-76
2023/06/24 08:27:55;;;;;;;7.20;6.60;;;;;;;20.16;75.17;99229.10;221945;1295;22569;-77
2023/06/24 08:32:57;;;;;;;8.20;7.00;;;;;;;20.05;75.43;99234.63;221886;1296;22560;-77
2023/06/24 08:38:00;;;;;;;8.30;6.70;;;;;;;20.21;75.22;99242.99;221965;1296;22576;-77
2023/06/24 08:43:02;;;;;;;7.30;6.60;;;;;;;20.39;74.60;99247.11;221736;1295;24270;-76
2023/06/24 08:48:05;;;;;;;7.60;6.80;;;;;;;20.56;74.07;99255.44;221666;1295;22561;-77
2023/06/24 08:53:09;;;;;;;7.40;6.60;;;;;;;20.77;73.80;99257.59;221661;1292;22627;-77
2023/06/24 08:58:12;;;;;;;8.00;6.70;;;;;;;21.05;73.30;99265.52;221828;1280;25357;-77
2023/06/24 09:03:14;;;;;;;7.10;6.40;;;;;;;21.20;72.49;99270.94;221865;1289;22615;-76
2023/06/24 09:08:17;;;;;;;7.20;6.50;;;;;;;21.08;72.09;99279.60;221772;1298;22566;-76
2023/06/24 09:13:20;;;;;;;7.30;6.50;;;;;;;21.04;72.03;99270.57;221896;1296;24785;-76
2023/06/24 09:18:33;;;;;;;7.00;6.40;;;;;;;21.14;72.08;99275.78;221472;1301;25405;-74
2023/06/24 09:23:39;;;;;;;5.70;5.20;;;;;;;21.24;71.34;99287.08;221789;1299;22595;-79
2023/06/24 09:28:46;;;;;;;7.10;6.40;;;;;;;21.15;71.17;99296.66;221499;1300;22618;-79
2023/06/24 09:33:49;;;;;;;7.40;6.60;;;;;;;20.92;71.20;99302.88;221555;1295;24385;-77
2023/06/24 09:39:06;;;;;;;6.50;5.90;;;;;;;20.83;71.06;99306.63;221481;1295;25520;-78
2023/06/24 09:44:19;;;;;;;6.70;6.10;;;;;;;20.87;71.09;99312.30;221360;1285;22633;-79
2023/06/24 09:49:24;;;;;;;6.70;5.70;;;;;;;20.90;70.95;99312.56;221808;1292;22586;-78
2023/06/24 09:54:55;;;;;;;6.90;6.20;;;;;;;21.02;70.73;99315.23;221968;1301;22584;-80
2023/06/24 10:00:12;;;;;;;8.60;6.40;;;;;;;21.18;70.12;99324.23;221584;1286;22568;-79
2023/06/24 10:05:15;;;;;;;6.10;5.40;;;;;;;21.27;70.05;99328.69;221512;1288;22717;-79
2023/06/24 10:10:18;;;;;;;6.50;5.80;;;;;;;21.21;70.04;99330.19;221920;1301;22553;-78
2023/06/24 10:15:22;;;;;;;7.20;6.30;;;;;;;20.97;69.79;99331.70;221936;1285;22616;-78
2023/06/24 10:20:30;;;;;;;7.10;6.40;;;;;;;20.75;70.07;99328.40;221746;1302;22575;-79
2023/06/24 10:25:41;;;;;;;7.60;5.90;;;;;;;20.60;70.28;99330.11;221756;1295;22596;-77
2023/06/24 10:30:55;;;;;;;6.10;5.50;;;;;;;20.53;70.32;99329.07;221813;1296;22568;-79
2023/06/24 10:35:57;;;;;;;6.10;5.50;;;;;;;20.54;70.36;99333.02;222056;1293;22560;-77
2023/06/24 10:41:31;;;;;;;5.40;4.90;;;;;;;20.60;70.54;99331.45;222063;1301;22610;-77
2023/06/24 10:46:39;;;;;;;6.60;5.20;;;;;;;20.50;70.22;99333.52;222111;1301;22594;-78
2023/06/24 10:51:48;;;;;;;5.90;5.30;;;;;;;20.35;70.26;99330.93;222019;1302;22576;-78
2023/06/24 10:56:55;;;;;;;6.80;5.50;;;;;;;20.25;70.54;99335.77;222148;1298;22552;-81
2023/06/24 11:02:01;;;;;;;6.30;5.70;;;;;;;20.18;70.84;99336.14;221701;1296;22663;-80
2023/06/24 11:07:07;;;;;;;6.50;5.90;;;;;;;20.16;70.96;99339.13;221721;1302;23755;-80
2023/06/24 11:12:16;;;;;;;8.30;6.10;;;;;;;20.18;71.25;99334.06;221978;1302;22565;-80
2023/06/24 11:17:20;;;;;;;7.30;6.50;;;;;;;20.29;71.21;99339.45;221965;1303;24548;-81
2023/06/24 11:22:23;;;;;;;6.70;6.00;;;;;;;20.39;71.16;99341.66;222044;1301;25016;-79
2023/06/24 11:27:27;;;;;;;7.40;6.00;;;;;;;20.48;70.91;99345.17;221894;1298;22606;-80
2023/06/24 11:32:39;;;;;;;6.20;5.50;;;;;;;20.55;70.94;99338.38;222346;1303;22581;-80
2023/06/24 11:37:43;;;;;;;6.40;5.80;;;;;;;20.65;70.70;99342.40;222218;1296;23123;-80
2023/06/24 11:42:50;;;;;;;5.40;4.60;;;;;;;20.73;70.38;99336.91;222349;1302;22599;-80
2023/06/24 11:48:04;;;;;;;4.70;4.10;;;;;;;20.78;69.94;99337.59;222250;1302;24276;-79
2023/06/24 11:53:09;;;;;;;4.80;4.30;;;;;;;20.77;69.27;99338.55;222222;1303;22568;-81
2023/06/24 11:58:19;;;;;;;5.20;4.40;;;;;;;20.85;69.10;99333.52;222053;1301;22510;-79
2023/06/24 12:03:22;;;;;;;5.90;3.50;;;;;;;20.97;68.47;99332.60;222274;1296;22566;-78
2023/06/24 12:08:26;;;;;;;3.80;3.50;;;;;;;21.02;67.73;99338.95;222257;1301;22621;-80
2023/06/24 12:13:32;;;;;;;6.90;3.80;;;;;;;20.95;66.78;99333.01;222269;1299;22569;-80
2023/06/24 12:18:39;;;;;;;3.60;3.30;;;;;;;20.98;66.79;99333.81;222185;1302;22569;-80
2023/06/24 12:23:41;;;;;;;4.20;3.20;;;;;;;21.17;66.25;99336.58;222380;1302;22657;-81
2023/06/24 12:28:46;;;;;;;3.90;3.40;;;;;;;21.34;65.80;99334.61;222227;1303;22601;-80
2023/06/24 12:33:50;;;;;;;4.50;3.70;;;;;;;21.47;65.74;99337.19;222215;1302;22569;-79
2023/06/24 12:38:56;;;;;;;5.00;3.80;;;;;;;21.48;65.12;99341.63;222266;1297;23151;-80
2023/06/24 12:44:02;;;;;;;4.30;3.80;;;;;;;21.37;64.71;99342.30;222228;1301;22569;-80
2023/06/24 12:49:04;;;;;;;4.00;3.70;;;;;;;21.21;64.87;99347.02;222326;1299;25895;-80
2023/06/24 12:54:07;;;;;;;4.30;3.90;;;;;;;21.07;64.90;99346.92;222249;1303;22570;-79
2023/06/24 12:59:14;;;;;;;4.30;3.90;;;;;;;20.85;64.85;99349.80;222108;1303;22598;-79
2023/06/24 13:04:19;;;;;;;4.70;3.80;;;;;;;20.69;65.20;99353.59;222286;1298;22561;-80
2023/06/24 13:09:22;;;;;;;4.30;4.00;;;;;;;20.55;65.65;99358.48;222330;1299;22623;-79
2023/06/24 13:14:27;;;;;;;3.70;3.40;;;;;;;20.52;66.08;99356.90;222202;1303;22567;-80
2023/06/24 13:19:34;;;;;;;4.10;3.50;;;;;;;20.48;66.26;99361.92;222202;1301;22579;-79
2023/06/24 13:24:39;;;;;;;5.40;4.00;;;;;;;20.42;66.38;99361.52;222150;1300;22596;-80
2023/06/24 13:29:42;;;;;;;4.00;3.60;;;;;;;20.28;66.69;99362.19;222247;1298;24354;-80
2023/06/24 13:34:45;;;;;;;5.50;4.40;;;;;;;20.23;67.21;99365.02;222141;1301;24252;-80
2023/06/24 13:39:48;;;;;;;4.40;3.80;;;;;;;20.22;67.42;99366.34;222107;1286;22576;-79
2023/06/24 13:44:50;;;;;;;4.30;3.80;;;;;;;20.19;67.45;99367.46;222259;1298;24317;-80
2023/06/24 13:50:02;;;;;;;4.10;3.70;;;;;;;20.10;67.31;99367.06;221981;1302;24040;-79
2023/06/24 13:55:06;;;;;;;4.10;3.70;;;;;;;20.02;67.57;99367.00;221989;1302;22560;-79
2023/06/24 14:00:15;;;;;;;4.40;3.70;;;;;;;20.04;67.86;99361.56;222216;1302;22520;-79
2023/06/24 14:05:21;;;;;;;4.20;3.80;;;;;;;20.15;67.79;99353.31;222384;1296;23020;-79
2023/06/24 14:10:23;;;;;;;5.10;3.90;;;;;;;20.34;67.82;99352.65;222257;1299;23559;-79
2023/06/24 14:15:34;;;;;;;4.90;4.00;;;;;;;20.51;67.67;99350.67;222265;1302;22600;-80
2023/06/24 14:20:40;;;;;;;5.10;4.20;;;;;;;20.56;67.35;99353.83;222378;1295;22671;-79
2023/06/24 14:25:42;;;;;;;3.90;3.50;;;;;;;20.60;67.29;99354.33;222358;1299;22585;-79
2023/06/24 14:30:51;;;;;;;4.10;3.60;;;;;;;20.64;66.95;99351.05;222393;1302;22576;-79
2023/06/24 14:35:56;;;;;;;5.50;4.00;;;;;;;20.64;66.83;99350.54;222239;1302;22588;-79
2023/06/24 14:40:59;;;;;;;5.30;4.80;;;;;;;20.64;66.90;99349.20;222353;1299;22577;-78
2023/06/24 14:46:02;;;;;;;4.30;3.90;;;;;;;20.53;67.06;99348.66;222355;1298;22598;-79
2023/06/24 14:51:04;;;;;;;7.70;4.30;;;;;;;20.38;67.33;99342.02;222221;1302;22584;-79
2023/06/24 14:56:06;;;;;;;4.80;4.10;;;;;;;20.29;67.76;99335.37;222155;1303;22679;-78
2023/06/24 15:01:18;;;;;;;4.50;4.10;;;;;;;20.20;67.87;99341.08;222286;1302;22588;-79
2023/06/24 15:06:33;;;;;;;5.20;4.70;;;;;;;20.09;68.23;99340.30;222102;1303;22578;-79
2023/06/24 15:11:36;;;;;;;4.70;4.20;;;;;;;19.97;68.58;99344.23;222355;1295;22649;-78
2023/06/24 15:16:38;;;;;;;5.40;4.90;;;;;;;19.82;68.86;99345.02;222261;1300;22568;-79
2023/06/24 15:22:01;;;;;;;6.60;5.20;;;;;;;19.68;69.25;99343.85;222258;1301;25513;-78
2023/06/24 15:27:04;;;;;;;6.90;5.00;;;;;;;19.61;69.52;99344.02;221568;1298;22557;-78
2023/06/24 15:32:10;;;;;;;5.20;4.70;;;;;;;19.55;69.71;99342.90;221626;1283;25375;-79
2023/06/24 15:37:27;;;;;;;5.50;4.90;;;;;;;19.45;70.00;99337.63;221371;1301;23665;-79
2023/06/24 15:42:30;;;;;;;6.70;4.90;;;;;;;19.38;70.44;99340.86;221472;1304;22737;-79
2023/06/24 15:47:34;;;;;;;8.10;5.10;;;;;;;19.29;70.50;99340.97;221610;1301;22565;-79
2023/06/24 15:52:40;;;;;;;6.30;5.50;;;;;;;19.20;70.89;99335.42;221563;1302;22575;-78
2023/06/24 15:57:45;;;;;;;6.90;5.00;;;;;;;19.09;71.07;99327.56;222024;1295;22576;-78
2023/06/24 16:02:50;;;;;;;5.80;5.30;;;;;;;18.98;71.32;99331.27;222245;1303;23050;-78
2023/06/24 16:07:53;;;;;;;5.80;5.00;;;;;;;18.93;71.74;99330.68;222286;1301;22566;-79
2023/06/24 16:13:12;;;;;;;5.80;5.20;;;;;;;18.98;72.00;99327.48;222190;1302;22658;-79
2023/06/24 16:18:17;;;;;;;8.30;5.40;;;;;;;19.02;72.06;99328.39;222341;1302;22598;-78
2023/06/24 16:23:20;;;;;;;7.10;5.60;;;;;;;19.06;72.13;99327.15;222210;1297;23456;-78
2023/06/24 16:28:33;;;;;;;7.10;6.40;;;;;;;19.09;72.29;99323.27;222155;1301;22574;-78
2023/06/24 16:33:36;;;;;;;6.80;5.50;;;;;;;19.13;72.34;99320.63;222235;1301;22565;-78
2023/06/24 16:38:47;;;;;;;6.90;5.40;;;;;;;19.14;72.42;99320.60;222322;1299;22594;-79
2023/06/24 16:43:50;;;;;;;6.60;5.90;;;;;;;19.14;72.59;99320.39;222212;1301;22572;-78
2023/06/24 16:48:53;;;;;;;6.90;5.20;;;;;;;19.11;72.59;99319.09;222289;1298;22590;-78
2023/06/24 16:53:58;;;;;;;7.10;5.70;;;;;;;19.07;72.75;99314.41;222156;1298;22569;-79
2023/06/24 16:59:04;;;;;;;7.50;5.70;;;;;;;19.03;72.84;99313.34;222241;1298;22649;-79
2023/06/24 17:04:10;;;;;;;5.90;5.40;;;;;;;19.00;73.03;99307.16;222167;1298;22587;-79
2023/06/24 17:09:21;;;;;;;8.30;5.80;;;;;;;18.97;72.92;99294.38;222163;1302;23648;-79
2023/06/24 17:14:28;;;;;;;7.40;5.50;;;;;;;19.11;73.44;99293.69;222264;1298;22595;-79
2023/06/24 17:19:47;;;;;;;5.80;5.00;;;;;;;20.12;74.84;99292.75;222257;1295;22584;-79
2023/06/24 17:24:55;;;;;;;6.10;5.50;;;;;;;21.79;73.97;99291.22;222243;1298;22572;-79
2023/06/24 17:30:04;;;;;;;7.00;6.00;;;;;;;23.41;71.98;99297.62;222194;1301;22574;-80
2023/06/24 17:35:07;;;;;;;144.40;132.60;;;;;;;24.66;69.22;99299.89;221954;1298;24273;-80
2023/06/24 17:40:18;;;;;;;10.90;9.90;;;;;;;25.76;67.27;99288.58;222129;1301;22583;-79
2023/06/24 17:45:29;;;;;;;7.50;6.70;;;;;;;26.69;65.22;99288.55;222234;1301;22580;-79
2023/06/24 17:50:37;;;;;;;6.10;5.70;;;;;;;27.13;63.01;99289.95;222204;1298;22561;-79
2023/06/24 17:55:40;;;;;;;8.00;5.90;;;;;;;26.89;61.33;99292.43;222172;1301;22615;-79
2023/06/24 18:01:00;;;;;;;6.20;5.70;;;;;;;25.82;60.37;99286.22;222201;1298;22720;-77
2023/06/24 18:06:08;;;;;;;6.40;5.90;;;;;;;24.50;60.60;99291.63;222170;1302;22595;-80
2023/06/24 18:11:11;;;;;;;6.80;6.20;;;;;;;23.58;62.16;99288.02;222132;1301;23796;-79
2023/06/24 18:16:14;;;;;;;6.70;6.10;;;;;;;22.80;62.87;99289.02;221807;1301;294946;-78
2023/06/24 18:21:22;;;;;;;6.20;5.60;;;;;;;22.13;64.23;99282.45;222043;1302;22645;-78
2023/06/24 18:26:35;;;;;;;6.30;5.50;;;;;;;21.57;64.67;99283.30;222265;1296;22579;-78
2023/06/24 18:31:42;;;;;;;8.10;5.90;;;;;;;21.03;65.66;99284.19;222152;1301;22570;-78
2023/06/24 18:36:47;;;;;;;11.70;9.90;;;;;;;20.50;66.29;99282.33;222212;1302;22598;-79
2023/06/24 18:41:53;;;;;;;7.90;5.90;;;;;;;20.06;67.31;99281.23;222248;1295;23486;-79
2023/06/24 18:46:56;;;;;;;6.30;5.70;;;;;;;19.68;68.05;99288.24;222166;1300;25988;-79
2023/06/24 18:52:04;;;;;;;7.20;5.70;;;;;;;19.31;68.98;99298.30;222335;1288;22693;-79
2023/06/24 18:57:12;;;;;;;8.60;6.00;;;;;;;18.99;69.75;99299.65;222335;1299;22606;-78
2023/06/24 19:02:18;;;;;;;6.80;6.10;;;;;;;18.69;70.55;99294.87;222257;1300;22600;-78
2023/06/24 19:07:52;;;;;;;7.20;6.30;;;;;;;18.44;71.43;99293.23;222308;1296;22603;-78
2023/06/24 19:12:55;;;;;;;8.00;7.20;;;;;;;18.18;71.96;99292.53;222337;1300;22573;-78
2023/06/24 19:18:00;;;;;;;9.90;8.00;;;;;;;17.92;72.64;99290.54;222237;1302;22613;-78
2023/06/24 19:23:13;;;;;;;7.50;6.80;;;;;;;17.72;73.35;99293.42;222275;1302;25264;-79
2023/06/24 19:28:15;;;;;;;8.20;6.80;;;;;;;17.45;73.72;99294.28;222057;1301;22582;-79
2023/06/24 19:33:18;;;;;;;8.10;6.90;;;;;;;17.22;74.15;99292.26;222233;1301;25316;-79
2023/06/24 19:38:21;;;;;;;10.10;7.30;;;;;;;17.06;74.84;99291.24;222383;1300;22577;-79
2023/06/24 19:43:24;;;;;;;10.30;8.00;;;;;;;16.93;75.37;99292.98;222198;1302;22582;-79
2023/06/24 19:48:29;;;;;;;9.90;8.60;;;;;;;16.80;75.57;99291.05;222223;1301;22565;-79
2023/06/24 19:53:31;;;;;;;10.00;9.00;;;;;;;16.69;76.26;99287.14;222222;1296;22572;-78
2023/06/24 19:58:34;;;;;;;9.80;8.40;;;;;;;16.57;76.62;99283.50;222400;1300;22568;-79
2023/06/24 20:03:37;;;;;;;10.70;9.20;;;;;;;16.44;77.03;99287.36;222373;1300;23865;-78
2023/06/24 20:08:40;;;;;;;11.10;9.90;;;;;;;16.33;77.15;99290.84;222320;1302;22571;-79
2023/06/24 20:13:51;;;;;;;12.00;10.40;;;;;;;16.21;77.68;99283.55;222255;1301;24289;-79
2023/06/24 20:18:54;;;;;;;12.50;9.80;;;;;;;16.10;77.80;99279.90;222341;1298;22569;-79
2023/06/24 20:24:01;;;;;;;12.70;11.00;;;;;;;15.99;78.30;99281.63;222059;1302;22585;-78
2023/06/24 20:29:03;;;;;;;12.10;10.90;;;;;;;15.89;78.37;99273.13;222235;1296;22568;-79
2023/06/24 20:34:06;;;;;;;12.60;11.30;;;;;;;15.81;79.00;99271.52;222259;1300;23216;-78
2023/06/24 20:39:09;;;;;;;24.50;21.90;;;;;;;15.72;79.07;99275.73;222267;1302;22567;-78
2023/06/24 20:44:12;;;;;;;14.70;12.00;;;;;;;15.65;79.09;99275.52;222333;1295;24287;-79
2023/06/24 20:49:28;;;;;;;15.20;11.80;;;;;;;15.56;79.58;99268.95;222299;1302;22596;-78
2023/06/24 20:54:31;;;;;;;12.50;11.10;;;;;;;15.48;79.84;99274.42;222310;1302;22556;-78
2023/06/24 20:59:36;;;;;;;12.90;11.40;;;;;;;15.40;79.99;99277.02;222189;1302;22564;-78
2023/06/24 21:04:39;;;;;;;13.80;11.70;;;;;;;15.34;80.43;99274.35;222241;1300;23129;-77
2023/06/24 21:09:41;;;;;;;15.10;13.00;;;;;;;15.25;80.61;99274.83;222265;1300;25271;-78
2023/06/24 21:14:49;;;;;;;14.40;12.80;;;;;;;15.16;81.04;99275.55;222222;1302;22620;-77
2023/06/24 21:19:54;;;;;;;17.10;13.50;;;;;;;15.06;81.17;99270.45;222216;1300;25300;-77
2023/06/24 21:24:59;;;;;;;16.50;13.90;;;;;;;14.98;81.34;99270.89;222216;1301;22558;-78
2023/06/24 21:30:03;;;;;;;13.80;12.40;;;;;;;14.92;81.68;99275.22;222295;1301;22628;-78
2023/06/24 21:35:08;;;;;;;13.80;12.40;;;;;;;14.84;81.62;99282.63;222237;1298;22586;-77
2023/06/24 21:40:11;;;;;;;12.80;11.50;;;;;;;14.72;81.95;99285.43;222178;1300;22579;-78
2023/06/24 21:45:22;;;;;;;14.00;12.00;;;;;;;14.62;82.02;99286.80;222266;1303;22574;-78
2023/06/24 21:50:28;;;;;;;13.30;11.10;;;;;;;14.54;82.39;99286.63;222316;1298;22591;-78
2023/06/24 21:55:30;;;;;;;13.10;10.80;;;;;;;14.48;82.68;99285.14;222251;1302;22587;-78
2023/06/24 22:00:32;;;;;;;14.10;11.50;;;;;;;14.42;82.92;99278.73;222257;1295;22617;-78
2023/06/24 22:05:35;;;;;;;12.30;11.10;;;;;;;14.39;82.87;99280.10;222224;1295;25328;-78
2023/06/24 22:10:37;;;;;;;12.20;11.00;;;;;;;14.36;83.00;99280.09;222279;1295;22939;-77
2023/06/24 22:15:40;;;;;;;12.80;11.50;;;;;;;14.33;83.27;99280.85;222163;1301;22590;-78
2023/06/24 22:20:42;;;;;;;12.90;11.50;;;;;;;14.30;83.38;99279.52;222197;1301;22582;-79
2023/06/24 22:25:45;;;;;;;14.90;11.30;;;;;;;14.27;83.40;99279.05;222280;1300;23911;-78
2023/06/24 22:30:48;;;;;;;15.30;12.10;;;;;;;14.24;83.65;99273.71;222336;1295;24430;-78
2023/06/24 22:35:50;;;;;;;12.70;11.40;;;;;;;14.21;83.72;99270.71;222319;1298;22652;-78
2023/06/24 22:40:52;;;;;;;14.50;12.00;;;;;;;14.18;83.68;99270.23;222209;1301;22576;-79
2023/06/24 22:45:55;;;;;;;13.80;11.00;;;;;;;14.14;83.79;99267.80;222337;1298;22564;-79
2023/06/24 22:50:57;;;;;;;13.10;11.10;;;;;;;14.08;83.96;99264.93;222241;1301;22578;-77
2023/06/24 22:56:00;;;;;;;13.50;11.50;;;;;;;14.03;84.01;99265.08;222241;1302;22593;-78
2023/06/24 23:01:04;;;;;;;13.80;11.40;;;;;;;13.99;84.15;99268.31;222317;1298;23055;-78
2023/06/24 23:06:07;;;;;;;13.80;12.10;;;;;;;13.95;84.26;99262.14;222266;1300;22604;-79
2023/06/24 23:11:13;;;;;;;13.40;11.70;;;;;;;13.91;84.46;99254.32;222328;1298;25456;-79
2023/06/24 23:16:17;;;;;;;12.90;11.50;;;;;;;13.89;84.43;99251.40;222304;1298;23332;-78
2023/06/24 23:21:20;;;;;;;16.90;11.50;;;;;;;13.87;84.59;99247.95;222206;1301;22563;-79
2023/06/24 23:26:26;;;;;;;13.10;11.70;;;;;;;13.84;84.81;99248.42;222321;1282;22584;-78
2023/06/24 23:31:33;;;;;;;14.50;12.50;;;;;;;13.81;84.70;99241.27;222289;1301;22565;-78
2023/06/24 23:36:38;;;;;;;16.00;13.30;;;;;;;13.78;84.94;99234.20;222312;1301;22553;-79
2023/06/24 23:41:42;;;;;;;18.20;13.80;;;;;;;13.75;84.94;99233.09;222239;1301;22575;-79
2023/06/24 23:46:44;;;;;;;14.80;13.20;;;;;;;13.72;84.93;99233.51;222116;1298;25279;-78